sensor_id;sensor_type;location;lat;lon;timestamp;pressure;altitude;pressure_sealevel;temperature;humidity
48846;BME280;34665;51.886;5.436;2022-10-23T00:00:28;101209.00;;;24.64;100.00
48846;BME280;34665;51.886;5.436;2022-10-23T00:02:54;101208.66;;;24.26;100.00
48846;BME280;34665;51.886;5.436;2022-10-23T00:05:21;101212.84;;;24.68;100.00
48846;BME280;34665;51.886;5.436;2022-10-23T00:07:51;101195.28;;;24.80;100.00
48846;BME280;34665;51.886;5.436;2022-10-23T00:10:18;101194.19;;;24.81;100.00
48846;BME280;34665;51.886;5.436;2022-10-23T00:12:44;101198.06;;;24.64;100.00
48846;BME280;34665;51.886;5.436;2022-10-23T00:15:10;101193.13;;;24.71;100.00
48846;BME280;34665;51.886;5.436;2022-10-23T00:17:36;101202.97;;;24.67;100.00
48846;BME280;34665;51.886;5.436;2022-10-23T00:20:03;101200.56;;;24.60;100.00
48846;BME280;34665;51.886;5.436;2022-10-23T00:22:29;101189.38;;;24.57;100.00
48846;BME280;34665;51.886;5.436;2022-10-23T00:24:55;101201.75;;;24.44;100.00
48846;BME280;34665;51.886;5.436;2022-10-23T00:27:20;101190.88;;;24.28;100.00
48846;BME280;34665;51.886;5.436;2022-10-23T00:29:45;101190.63;;;24.25;100.00
48846;BME280;34665;51.886;5.436;2022-10-23T00:32:11;101197.13;;;24.34;100.00
48846;BME280;34665;51.886;5.436;2022-10-23T00:34:37;101198.75;;;24.40;100.00
48846;BME280;34665;51.886;5.436;2022-10-23T00:37:02;101199.81;;;24.49;100.00
48846;BME280;34665;51.886;5.436;2022-10-23T00:39:28;101194.22;;;24.65;100.00
48846;BME280;34665;51.886;5.436;2022-10-23T00:41:53;101193.44;;;24.65;100.00
48846;BME280;34665;51.886;5.436;2022-10-23T00:46:45;101186.66;;;24.52;100.00
48846;BME280;34665;51.886;5.436;2022-10-23T00:49:11;101194.53;;;24.63;100.00
48846;BME280;34665;51.886;5.436;2022-10-23T00:51:39;101190.25;;;24.47;100.00
48846;BME280;34665;51.886;5.436;2022-10-23T00:54:06;101191.06;;;24.47;100.00
48846;BME280;34665;51.886;5.436;2022-10-23T00:56:35;101197.84;;;24.55;100.00
48846;BME280;34665;51.886;5.436;2022-10-23T00:59:02;101207.66;;;24.56;100.00
48846;BME280;34665;51.886;5.436;2022-10-23T01:01:27;101198.41;;;24.57;100.00
48846;BME280;34665;51.886;5.436;2022-10-23T01:03:53;101202.44;;;24.65;100.00
48846;BME280;34665;51.886;5.436;2022-10-23T01:09:24;101193.91;;;24.22;100.00
48846;BME280;34665;51.886;5.436;2022-10-23T01:11:57;101189.63;;;24.55;100.00
48846;BME280;34665;51.886;5.436;2022-10-23T01:14:37;101183.97;;;24.41;100.00
48846;BME280;34665;51.886;5.436;2022-10-23T01:17:08;101184.03;;;24.31;100.00
48846;BME280;34665;51.886;5.436;2022-10-23T01:20:15;101182.41;;;24.30;100.00
48846;BME280;34665;51.886;5.436;2022-10-23T01:28:01;101174.22;;;24.25;100.00
48846;BME280;34665;51.886;5.436;2022-10-23T01:30:29;101174.97;;;24.41;100.00
48846;BME280;34665;51.886;5.436;2022-10-23T01:33:04;101171.94;;;24.42;100.00
48846;BME280;34665;51.886;5.436;2022-10-23T01:36:02;101176.56;;;24.47;100.00
48846;BME280;34665;51.886;5.436;2022-10-23T01:38:38;101173.44;;;24.69;100.00
48846;BME280;34665;51.886;5.436;2022-10-23T01:41:39;101170.63;;;24.29;100.00
48846;BME280;34665;51.886;5.436;2022-10-23T01:44:15;101173.66;;;24.28;100.00
48846;BME280;34665;51.886;5.436;2022-10-23T01:46:44;101172.16;;;23.75;100.00
48846;BME280;34665;51.886;5.436;2022-10-23T01:49:13;101170.78;;;23.83;100.00
48846;BME280;34665;51.886;5.436;2022-10-23T01:51:49;101163.09;;;24.05;100.00
48846;BME280;34665;51.886;5.436;2022-10-23T01:54:17;101159.97;;;24.33;100.00
48846;BME280;34665;51.886;5.436;2022-10-23T01:56:45;101158.75;;;23.84;100.00
48846;BME280;34665;51.886;5.436;2022-10-23T01:59:18;101151.91;;;24.07;100.00
48846;BME280;34665;51.886;5.436;2022-10-23T02:01:48;101146.69;;;24.11;100.00
48846;BME280;34665;51.886;5.436;2022-10-23T02:04:21;101134.69;;;24.06;100.00
48846;BME280;34665;51.886;5.436;2022-10-23T02:06:49;101126.75;;;24.10;100.00
48846;BME280;34665;51.886;5.436;2022-10-23T02:09:15;101128.34;;;24.16;100.00
48846;BME280;34665;51.886;5.436;2022-10-23T02:11:50;101121.31;;;24.05;100.00
48846;BME280;34665;51.886;5.436;2022-10-23T02:17:08;101122.97;;;23.90;100.00
48846;BME280;34665;51.886;5.436;2022-10-23T02:19:49;101122.84;;;24.27;100.00
48846;BME280;34665;51.886;5.436;2022-10-23T02:22:34;101117.03;;;23.78;100.00
48846;BME280;34665;51.886;5.436;2022-10-23T02:25:13;101121.38;;;23.79;100.00
48846;BME280;34665;51.886;5.436;2022-10-23T02:27:51;101114.59;;;23.61;100.00
48846;BME280;34665;51.886;5.436;2022-10-23T02:30:21;101111.00;;;23.81;100.00
48846;BME280;34665;51.886;5.436;2022-10-23T02:33:01;101111.78;;;23.92;100.00
48846;BME280;34665;51.886;5.436;2022-10-23T02:35:28;101118.09;;;24.43;100.00
48846;BME280;34665;51.886;5.436;2022-10-23T02:38:02;101113.59;;;24.17;100.00
48846;BME280;34665;51.886;5.436;2022-10-23T02:40:37;101110.28;;;24.26;100.00
48846;BME280;34665;51.886;5.436;2022-10-23T02:43:21;101113.13;;;24.00;100.00
48846;BME280;34665;51.886;5.436;2022-10-23T02:46:00;101109.69;;;23.68;100.00
48846;BME280;34665;51.886;5.436;2022-10-23T02:48:33;101095.75;;;23.65;100.00
48846;BME280;34665;51.886;5.436;2022-10-23T02:54:03;101103.16;;;24.30;100.00
48846;BME280;34665;51.886;5.436;2022-10-23T02:56:57;101094.44;;;23.46;100.00
48846;BME280;34665;51.886;5.436;2022-10-23T02:59:43;101094.06;;;23.74;100.00
48846;BME280;34665;51.886;5.436;2022-10-23T03:02:25;101092.97;;;23.85;100.00
48846;BME280;34665;51.886;5.436;2022-10-23T03:04:55;101094.34;;;23.77;100.00
48846;BME280;34665;51.886;5.436;2022-10-23T03:07:24;101082.59;;;23.82;100.00
48846;BME280;34665;51.886;5.436;2022-10-23T03:09:56;101072.22;;;23.74;100.00
48846;BME280;34665;51.886;5.436;2022-10-23T03:12:22;101067.88;;;23.78;100.00
48846;BME280;34665;51.886;5.436;2022-10-23T03:14:48;101056.63;;;23.90;100.00
48846;BME280;34665;51.886;5.436;2022-10-23T03:17:14;101050.72;;;23.67;100.00
48846;BME280;34665;51.886;5.436;2022-10-23T03:19:39;101049.81;;;23.82;100.00
48846;BME280;34665;51.886;5.436;2022-10-23T03:22:05;101050.88;;;23.91;100.00
48846;BME280;34665;51.886;5.436;2022-10-23T03:24:30;101057.16;;;23.92;100.00
48846;BME280;34665;51.886;5.436;2022-10-23T03:26:56;101054.13;;;23.94;100.00
48846;BME280;34665;51.886;5.436;2022-10-23T03:29:28;101045.09;;;23.98;100.00
48846;BME280;34665;51.886;5.436;2022-10-23T03:31:54;101045.06;;;24.09;100.00
48846;BME280;34665;51.886;5.436;2022-10-23T03:34:20;101049.69;;;24.13;100.00
48846;BME280;34665;51.886;5.436;2022-10-23T03:36:46;101038.44;;;24.20;100.00
48846;BME280;34665;51.886;5.436;2022-10-23T03:39:12;101034.09;;;24.19;100.00
48846;BME280;34665;51.886;5.436;2022-10-23T03:41:40;101030.06;;;24.06;100.00
48846;BME280;34665;51.886;5.436;2022-10-23T03:44:06;101026.31;;;23.86;100.00
48846;BME280;34665;51.886;5.436;2022-10-23T03:46:31;101027.22;;;23.71;100.00
48846;BME280;34665;51.886;5.436;2022-10-23T03:48:57;101018.09;;;24.02;100.00
48846;BME280;34665;51.886;5.436;2022-10-23T03:51:24;101016.03;;;23.68;100.00
48846;BME280;34665;51.886;5.436;2022-10-23T03:53:49;101019.53;;;23.78;100.00
48846;BME280;34665;51.886;5.436;2022-10-23T03:56:15;101014.03;;;23.89;100.00
48846;BME280;34665;51.886;5.436;2022-10-23T03:58:43;101011.63;;;23.72;100.00
48846;BME280;34665;51.886;5.436;2022-10-23T04:01:09;100997.16;;;23.76;100.00
48846;BME280;34665;51.886;5.436;2022-10-23T04:03:35;101002.72;;;24.11;100.00
48846;BME280;34665;51.886;5.436;2022-10-23T04:06:01;101001.44;;;23.93;100.00
48846;BME280;34665;51.886;5.436;2022-10-23T04:08:26;100996.00;;;23.88;100.00
48846;BME280;34665;51.886;5.436;2022-10-23T04:10:53;100992.50;;;23.82;100.00
48846;BME280;34665;51.886;5.436;2022-10-23T04:13:24;100996.25;;;23.91;100.00
48846;BME280;34665;51.886;5.436;2022-10-23T04:15:51;100988.78;;;23.57;100.00
48846;BME280;34665;51.886;5.436;2022-10-23T04:18:18;100977.78;;;23.78;100.00
48846;BME280;34665;51.886;5.436;2022-10-23T04:20:49;100992.63;;;24.06;100.00
48846;BME280;34665;51.886;5.436;2022-10-23T04:23:15;100985.22;;;24.12;100.00
48846;BME280;34665;51.886;5.436;2022-10-23T04:25:43;100984.13;;;24.13;100.00
48846;BME280;34665;51.886;5.436;2022-10-23T04:28:08;100984.34;;;24.22;100.00
48846;BME280;34665;51.886;5.436;2022-10-23T04:30:37;100975.78;;;24.34;100.00
48846;BME280;34665;51.886;5.436;2022-10-23T04:33:04;100970.47;;;24.13;100.00
48846;BME280;34665;51.886;5.436;2022-10-23T04:35:30;100976.25;;;24.06;100.00
48846;BME280;34665;51.886;5.436;2022-10-23T04:37:55;100970.56;;;24.03;100.00
48846;BME280;34665;51.886;5.436;2022-10-23T04:40:22;100967.72;;;24.13;100.00
48846;BME280;34665;51.886;5.436;2022-10-23T04:42:48;100969.16;;;24.00;100.00
48846;BME280;34665;51.886;5.436;2022-10-23T04:45:15;100969.78;;;23.87;100.00
48846;BME280;34665;51.886;5.436;2022-10-23T04:47:41;100963.25;;;23.88;100.00
48846;BME280;34665;51.886;5.436;2022-10-23T04:50:08;100967.53;;;23.99;100.00
48846;BME280;34665;51.886;5.436;2022-10-23T04:53:07;100962.91;;;23.95;100.00
48846;BME280;34665;51.886;5.436;2022-10-23T04:55:55;100964.13;;;24.23;100.00
48846;BME280;34665;51.886;5.436;2022-10-23T04:58:29;100966.72;;;24.04;100.00
48846;BME280;34665;51.886;5.436;2022-10-23T05:00:57;100955.66;;;24.25;100.00
48846;BME280;34665;51.886;5.436;2022-10-23T05:03:24;100949.59;;;24.92;100.00
48846;BME280;34665;51.886;5.436;2022-10-23T05:05:54;100941.69;;;24.26;100.00
48846;BME280;34665;51.886;5.436;2022-10-23T05:08:27;100956.72;;;24.88;100.00
48846;BME280;34665;51.886;5.436;2022-10-23T05:11:13;100952.66;;;24.85;100.00
48846;BME280;34665;51.886;5.436;2022-10-23T05:13:45;100950.03;;;24.99;100.00
48846;BME280;34665;51.886;5.436;2022-10-23T05:16:18;100954.91;;;24.78;100.00
48846;BME280;34665;51.886;5.436;2022-10-23T05:18:46;100959.06;;;24.41;100.00
48846;BME280;34665;51.886;5.436;2022-10-23T05:21:17;100957.28;;;24.55;100.00
48846;BME280;34665;51.886;5.436;2022-10-23T05:23:48;100947.56;;;24.44;100.00
48846;BME280;34665;51.886;5.436;2022-10-23T05:26:15;100949.97;;;24.51;100.00
48846;BME280;34665;51.886;5.436;2022-10-23T05:28:43;100946.72;;;24.09;100.00
48846;BME280;34665;51.886;5.436;2022-10-23T05:31:14;100939.72;;;24.32;100.00
48846;BME280;34665;51.886;5.436;2022-10-23T05:33:44;100943.81;;;24.34;100.00
48846;BME280;34665;51.886;5.436;2022-10-23T05:36:11;100941.25;;;24.43;100.00
48846;BME280;34665;51.886;5.436;2022-10-23T05:38:38;100943.25;;;24.32;100.00
48846;BME280;34665;51.886;5.436;2022-10-23T05:41:11;100936.69;;;23.94;100.00
48846;BME280;34665;51.886;5.436;2022-10-23T05:43:36;100937.41;;;24.44;100.00
48846;BME280;34665;51.886;5.436;2022-10-23T05:46:08;100937.41;;;24.74;100.00
48846;BME280;34665;51.886;5.436;2022-10-23T05:48:51;100935.00;;;24.72;100.00
48846;BME280;34665;51.886;5.436;2022-10-23T05:51:39;100939.06;;;24.75;100.00
48846;BME280;34665;51.886;5.436;2022-10-23T05:54:20;100931.75;;;24.65;100.00
48846;BME280;34665;51.886;5.436;2022-10-23T05:57:02;100925.81;;;24.58;100.00
48846;BME280;34665;51.886;5.436;2022-10-23T05:59:31;100923.97;;;24.24;100.00
48846;BME280;34665;51.886;5.436;2022-10-23T06:02:02;100920.25;;;24.09;100.00
48846;BME280;34665;51.886;5.436;2022-10-23T06:04:42;100916.28;;;24.26;100.00
48846;BME280;34665;51.886;5.436;2022-10-23T06:07:28;100915.75;;;24.24;100.00
48846;BME280;34665;51.886;5.436;2022-10-23T06:09:54;100921.41;;;24.62;100.00
48846;BME280;34665;51.886;5.436;2022-10-23T06:12:21;100904.88;;;24.48;100.00
48846;BME280;34665;51.886;5.436;2022-10-23T06:14:49;100913.03;;;25.07;100.00
48846;BME280;34665;51.886;5.436;2022-10-23T06:17:15;100897.59;;;24.38;100.00
48846;BME280;34665;51.886;5.436;2022-10-23T06:19:43;100904.28;;;24.51;100.00
48846;BME280;34665;51.886;5.436;2022-10-23T06:22:09;100910.28;;;24.24;100.00
48846;BME280;34665;51.886;5.436;2022-10-23T06:24:45;100902.53;;;24.36;100.00
48846;BME280;34665;51.886;5.436;2022-10-23T06:27:16;100897.59;;;24.38;100.00
48846;BME280;34665;51.886;5.436;2022-10-23T06:29:44;100899.47;;;24.67;100.00
48846;BME280;34665;51.886;5.436;2022-10-23T06:32:10;100890.88;;;24.25;100.00
48846;BME280;34665;51.886;5.436;2022-10-23T06:34:37;100893.13;;;24.47;100.00
48846;BME280;34665;51.886;5.436;2022-10-23T06:37:05;100887.22;;;24.35;100.00
48846;BME280;34665;51.886;5.436;2022-10-23T06:39:54;100880.66;;;24.36;100.00
48846;BME280;34665;51.886;5.436;2022-10-23T06:42:28;100884.50;;;24.35;100.00
48846;BME280;34665;51.886;5.436;2022-10-23T06:44:55;100882.88;;;24.34;100.00
48846;BME280;34665;51.886;5.436;2022-10-23T06:47:39;100877.19;;;24.55;100.00
48846;BME280;34665;51.886;5.436;2022-10-23T06:50:43;100880.91;;;24.64;100.00
48846;BME280;34665;51.886;5.436;2022-10-23T06:53:13;100869.91;;;24.15;100.00
48846;BME280;34665;51.886;5.436;2022-10-23T06:55:45;100858.66;;;24.22;100.00
48846;BME280;34665;51.886;5.436;2022-10-23T06:58:11;100867.09;;;24.26;100.00
48846;BME280;34665;51.886;5.436;2022-10-23T07:00:53;100864.25;;;24.36;100.00
48846;BME280;34665;51.886;5.436;2022-10-23T07:03:18;100864.06;;;24.27;100.00
48846;BME280;34665;51.886;5.436;2022-10-23T07:05:44;100862.31;;;24.66;100.00
48846;BME280;34665;51.886;5.436;2022-10-23T07:08:12;100869.78;;;24.31;100.00
48846;BME280;34665;51.886;5.436;2022-10-23T07:10:40;100876.00;;;24.90;100.00
48846;BME280;34665;51.886;5.436;2022-10-23T07:13:10;100877.00;;;24.16;100.00
48846;BME280;34665;51.886;5.436;2022-10-23T07:15:39;100871.31;;;24.13;100.00
48846;BME280;34665;51.886;5.436;2022-10-23T07:18:08;100857.28;;;24.25;100.00
48846;BME280;34665;51.886;5.436;2022-10-23T07:20:59;100855.16;;;24.16;100.00
48846;BME280;34665;51.886;5.436;2022-10-23T07:23:24;100862.69;;;24.30;100.00
48846;BME280;34665;51.886;5.436;2022-10-23T07:25:50;100862.25;;;24.17;100.00
48846;BME280;34665;51.886;5.436;2022-10-23T07:28:20;100864.25;;;24.36;100.00
48846;BME280;34665;51.886;5.436;2022-10-23T07:30:57;100857.81;;;24.51;100.00
48846;BME280;34665;51.886;5.436;2022-10-23T07:33:26;100863.59;;;24.49;100.00
48846;BME280;34665;51.886;5.436;2022-10-23T07:36:07;100858.69;;;25.19;100.00
48846;BME280;34665;51.886;5.436;2022-10-23T07:38:34;100848.06;;;24.69;100.00
48846;BME280;34665;51.886;5.436;2022-10-23T07:41:00;100850.00;;;24.39;100.00
48846;BME280;34665;51.886;5.436;2022-10-23T07:43:26;100844.84;;;24.62;100.00
48846;BME280;34665;51.886;5.436;2022-10-23T07:45:53;100842.50;;;24.80;100.00
48846;BME280;34665;51.886;5.436;2022-10-23T07:48:24;100842.13;;;24.38;100.00
48846;BME280;34665;51.886;5.436;2022-10-23T07:51:02;100840.25;;;24.33;100.00
48846;BME280;34665;51.886;5.436;2022-10-23T07:53:35;100843.50;;;24.05;100.00
48846;BME280;34665;51.886;5.436;2022-10-23T07:56:16;100843.59;;;25.41;100.00
48846;BME280;34665;51.886;5.436;2022-10-23T07:59:13;100834.13;;;25.14;100.00
48846;BME280;34665;51.886;5.436;2022-10-23T08:01:42;100834.63;;;24.97;100.00
48846;BME280;34665;51.886;5.436;2022-10-23T08:04:09;100843.19;;;25.15;100.00
48846;BME280;34665;51.886;5.436;2022-10-23T08:06:42;100836.00;;;25.19;100.00
48846;BME280;34665;51.886;5.436;2022-10-23T08:09:08;100836.94;;;25.09;100.00
48846;BME280;34665;51.886;5.436;2022-10-23T08:11:37;100837.97;;;25.13;100.00
48846;BME280;34665;51.886;5.436;2022-10-23T08:14:05;100830.91;;;24.88;100.00
48846;BME280;34665;51.886;5.436;2022-10-23T08:16:34;100832.66;;;25.22;100.00
48846;BME280;34665;51.886;5.436;2022-10-23T08:19:13;100828.16;;;25.31;100.00
48846;BME280;34665;51.886;5.436;2022-10-23T08:21:40;100830.97;;;25.26;100.00
48846;BME280;34665;51.886;5.436;2022-10-23T08:24:06;100823.00;;;25.49;100.00
48846;BME280;34665;51.886;5.436;2022-10-23T08:26:32;100825.75;;;25.82;100.00
48846;BME280;34665;51.886;5.436;2022-10-23T08:28:58;100824.16;;;25.43;100.00
48846;BME280;34665;51.886;5.436;2022-10-23T08:31:25;100815.63;;;25.50;100.00
48846;BME280;34665;51.886;5.436;2022-10-23T08:34:26;100806.72;;;25.39;100.00
48846;BME280;34665;51.886;5.436;2022-10-23T08:36:53;100811.69;;;25.56;100.00
48846;BME280;34665;51.886;5.436;2022-10-23T08:39:18;100812.28;;;25.53;100.00
48846;BME280;34665;51.886;5.436;2022-10-23T08:42:04;100801.75;;;25.22;100.00
48846;BME280;34665;51.886;5.436;2022-10-23T08:44:47;100794.34;;;28.42;100.00
48846;BME280;34665;51.886;5.436;2022-10-23T08:47:24;100798.00;;;26.22;100.00
48846;BME280;34665;51.886;5.436;2022-10-23T08:50:24;100800.25;;;25.68;100.00
48846;BME280;34665;51.886;5.436;2022-10-23T08:52:54;100801.06;;;26.01;100.00
48846;BME280;34665;51.886;5.436;2022-10-23T08:55:30;100799.94;;;25.88;100.00
48846;BME280;34665;51.886;5.436;2022-10-23T08:58:17;100807.28;;;28.10;84.39
48846;BME280;34665;51.886;5.436;2022-10-23T09:00:46;100796.03;;;26.23;100.00
48846;BME280;34665;51.886;5.436;2022-10-23T09:03:13;100795.09;;;26.13;100.00
48846;BME280;34665;51.886;5.436;2022-10-23T09:08:46;100773.34;;;26.03;100.00
48846;BME280;34665;51.886;5.436;2022-10-23T09:11:31;100774.81;;;26.14;100.00
48846;BME280;34665;51.886;5.436;2022-10-23T09:17:22;100778.53;;;25.90;100.00
48846;BME280;34665;51.886;5.436;2022-10-23T09:19:54;100772.59;;;26.44;100.00
48846;BME280;34665;51.886;5.436;2022-10-23T09:22:23;100763.16;;;26.37;100.00
48846;BME280;34665;51.886;5.436;2022-10-23T09:24:49;100765.28;;;26.26;100.00
48846;BME280;34665;51.886;5.436;2022-10-23T09:27:15;100757.56;;;26.70;100.00
48846;BME280;34665;51.886;5.436;2022-10-23T09:29:52;100747.72;;;26.27;100.00
48846;BME280;34665;51.886;5.436;2022-10-23T09:32:18;100753.00;;;26.65;100.00
48846;BME280;34665;51.886;5.436;2022-10-23T09:34:52;100742.66;;;26.48;100.00
48846;BME280;34665;51.886;5.436;2022-10-23T09:37:25;100738.38;;;26.28;100.00
48846;BME280;34665;51.886;5.436;2022-10-23T09:40:15;100740.59;;;26.68;100.00
48846;BME280;34665;51.886;5.436;2022-10-23T09:43:02;100731.13;;;26.74;100.00
48846;BME280;34665;51.886;5.436;2022-10-23T09:45:33;100725.63;;;26.23;100.00
48846;BME280;34665;51.886;5.436;2022-10-23T09:48:15;100742.84;;;26.38;100.00
48846;BME280;34665;51.886;5.436;2022-10-23T09:50:46;100734.59;;;26.52;100.00
48846;BME280;34665;51.886;5.436;2022-10-23T09:53:19;100729.22;;;26.88;100.00
48846;BME280;34665;51.886;5.436;2022-10-23T09:55:51;100720.59;;;26.67;100.00
48846;BME280;34665;51.886;5.436;2022-10-23T09:58:39;100723.13;;;26.77;100.00
48846;BME280;34665;51.886;5.436;2022-10-23T10:01:21;100724.25;;;26.76;100.00
48846;BME280;34665;51.886;5.436;2022-10-23T10:03:50;100710.53;;;26.76;100.00
48846;BME280;34665;51.886;5.436;2022-10-23T10:06:31;100695.22;;;26.47;100.00
48846;BME280;34665;51.886;5.436;2022-10-23T10:09:02;100692.50;;;26.05;100.00
48846;BME280;34665;51.886;5.436;2022-10-23T10:25:28;100687.19;;;27.25;98.78
48846;BME280;34665;51.886;5.436;2022-10-23T10:31:41;100666.13;;;27.11;100.00
48846;BME280;34665;51.886;5.436;2022-10-23T10:40:00;100659.59;;;27.53;96.36
48846;BME280;34665;51.886;5.436;2022-10-23T10:42:50;100643.66;;;28.13;92.79
48846;BME280;34665;51.886;5.436;2022-10-23T10:45:30;100639.88;;;27.91;94.32
48846;BME280;34665;51.886;5.436;2022-10-23T10:51:37;100641.75;;;28.22;90.91
48846;BME280;34665;51.886;5.436;2022-10-23T10:54:24;100647.31;;;28.48;89.01
48846;BME280;34665;51.886;5.436;2022-10-23T10:56:57;100640.84;;;28.44;89.77
48846;BME280;34665;51.886;5.436;2022-10-23T10:59:28;100627.06;;;28.27;90.93
48846;BME280;34665;51.886;5.436;2022-10-23T11:02:01;100621.75;;;28.30;89.85
48846;BME280;34665;51.886;5.436;2022-10-23T11:04:45;100619.81;;;28.93;86.29
48846;BME280;34665;51.886;5.436;2022-10-23T11:07:14;100641.78;;;34.89;69.56
48846;BME280;34665;51.886;5.436;2022-10-23T11:09:42;100631.59;;;32.08;80.69
48846;BME280;34665;51.886;5.436;2022-10-23T11:12:17;100627.56;;;28.90;86.47
48846;BME280;34665;51.886;5.436;2022-10-23T11:14:43;100626.56;;;29.22;85.56
48846;BME280;34665;51.886;5.436;2022-10-23T11:17:14;100618.38;;;30.21;79.63
48846;BME280;34665;51.886;5.436;2022-10-23T11:22:47;100600.59;;;29.79;81.77
48846;BME280;34665;51.886;5.436;2022-10-23T11:31:28;100585.25;;;31.30;74.46
48846;BME280;34665;51.886;5.436;2022-10-23T11:34:25;100571.03;;;30.61;76.66
48846;BME280;34665;51.886;5.436;2022-10-23T11:36:59;100582.84;;;31.66;71.76
48846;BME280;34665;51.886;5.436;2022-10-23T11:39:28;100576.44;;;31.03;73.83
48846;BME280;34665;51.886;5.436;2022-10-23T11:44:44;100571.16;;;30.98;73.94
48846;BME280;34665;51.886;5.436;2022-10-23T11:47:31;100551.31;;;30.84;71.80
48846;BME280;34665;51.886;5.436;2022-10-23T11:52:37;100553.47;;;30.78;74.88
48846;BME280;34665;51.886;5.436;2022-10-23T11:55:25;100559.06;;;30.14;76.53
48846;BME280;34665;51.886;5.436;2022-10-23T12:00:33;100560.97;;;29.93;79.14
48846;BME280;34665;51.886;5.436;2022-10-23T12:02:59;100546.97;;;30.28;77.51
48846;BME280;34665;51.886;5.436;2022-10-23T12:05:32;100545.09;;;30.53;76.30
48846;BME280;34665;51.886;5.436;2022-10-23T12:08:01;100541.28;;;30.79;75.30
48846;BME280;34665;51.886;5.436;2022-10-23T12:10:32;100525.63;;;31.29;73.70
48846;BME280;34665;51.886;5.436;2022-10-23T12:13:02;100544.44;;;33.48;61.72
48846;BME280;34665;51.886;5.436;2022-10-23T12:15:28;100519.63;;;32.59;64.69
48846;BME280;34665;51.886;5.436;2022-10-23T12:18:06;100525.63;;;31.29;69.54
48846;BME280;34665;51.886;5.436;2022-10-23T12:20:47;100525.84;;;30.44;73.29
48846;BME280;34665;51.886;5.436;2022-10-23T12:24:17;100525.13;;;27.79;87.57
48846;BME280;34665;51.886;5.436;2022-10-23T12:32:32;100514.56;;;29.73;78.62
48846;BME280;34665;51.886;5.436;2022-10-23T12:37:47;100493.13;;;30.22;77.86
48846;BME280;34665;51.886;5.436;2022-10-23T12:40:17;100492.50;;;29.95;79.39
48846;BME280;34665;51.886;5.436;2022-10-23T12:42:49;100485.09;;;29.35;82.07
48846;BME280;34665;51.886;5.436;2022-10-23T12:45:19;100473.69;;;29.54;82.82
48846;BME280;34665;51.886;5.436;2022-10-23T12:47:49;100476.28;;;29.21;83.89
48846;BME280;34665;51.886;5.436;2022-10-23T12:50:28;100469.03;;;28.51;86.76
48846;BME280;34665;51.886;5.436;2022-10-23T12:52:57;100468.16;;;28.85;86.03
48846;BME280;34665;51.886;5.436;2022-10-23T12:55:25;100462.41;;;29.08;86.02
48846;BME280;34665;51.886;5.436;2022-10-23T12:57:51;100455.59;;;29.05;85.64
48846;BME280;34665;51.886;5.436;2022-10-23T13:00:20;100453.19;;;29.04;84.70
48846;BME280;34665;51.886;5.436;2022-10-23T13:02:57;100454.59;;;29.49;83.28
48846;BME280;34665;51.886;5.436;2022-10-23T13:05:23;100441.50;;;29.37;83.29
48846;BME280;34665;51.886;5.436;2022-10-23T13:07:49;100437.06;;;29.24;83.19
48846;BME280;34665;51.886;5.436;2022-10-23T13:10:22;100435.69;;;29.39;83.28
48846;BME280;34665;51.886;5.436;2022-10-23T13:12:55;100437.53;;;28.96;84.72
48846;BME280;34665;51.886;5.436;2022-10-23T13:15:21;100428.78;;;29.96;81.52
48846;BME280;34665;51.886;5.436;2022-10-23T13:18:08;100426.09;;;29.45;83.69
48846;BME280;34665;51.886;5.436;2022-10-23T13:20:34;100416.31;;;29.56;84.18
48846;BME280;34665;51.886;5.436;2022-10-23T13:23:32;100403.59;;;29.85;82.27
48846;BME280;34665;51.886;5.436;2022-10-23T13:26:04;100404.00;;;29.54;82.91
48846;BME280;34665;51.886;5.436;2022-10-23T13:28:42;100393.19;;;29.91;81.95
48846;BME280;34665;51.886;5.436;2022-10-23T13:33:45;100379.25;;;30.09;81.14
48846;BME280;34665;51.886;5.436;2022-10-23T13:38:40;100379.88;;;30.27;80.11
48846;BME280;34665;51.886;5.436;2022-10-23T13:41:11;100369.78;;;30.43;79.62
48846;BME280;34665;51.886;5.436;2022-10-23T13:43:39;100366.03;;;29.81;81.01
48846;BME280;34665;51.886;5.436;2022-10-23T13:46:04;100348.31;;;29.69;83.70
48846;BME280;34665;51.886;5.436;2022-10-23T13:48:30;100349.56;;;29.72;82.78
48846;BME280;34665;51.886;5.436;2022-10-23T13:51:09;100355.00;;;29.38;85.09
48846;BME280;34665;51.886;5.436;2022-10-23T13:53:36;100359.53;;;29.43;85.77
48846;BME280;34665;51.886;5.436;2022-10-23T13:56:02;100346.31;;;28.76;88.90
48846;BME280;34665;51.886;5.436;2022-10-23T13:58:27;100344.09;;;28.99;88.80
48846;BME280;34665;51.886;5.436;2022-10-23T14:00:53;100343.16;;;28.95;89.08
48846;BME280;34665;51.886;5.436;2022-10-23T14:03:18;100343.75;;;29.52;84.66
48846;BME280;34665;51.886;5.436;2022-10-23T14:05:51;100339.53;;;29.03;88.09
48846;BME280;34665;51.886;5.436;2022-10-23T14:08:17;100335.63;;;29.04;87.29
48846;BME280;34665;51.886;5.436;2022-10-23T14:10:42;100328.59;;;29.16;87.73
48846;BME280;34665;51.886;5.436;2022-10-23T14:13:08;100332.41;;;29.02;88.50
48846;BME280;34665;51.886;5.436;2022-10-23T14:15:33;100337.19;;;29.44;87.03
48846;BME280;34665;51.886;5.436;2022-10-23T14:17:59;100330.38;;;29.42;87.50
48846;BME280;34665;51.886;5.436;2022-10-23T14:20:24;100340.38;;;29.68;85.72
48846;BME280;34665;51.886;5.436;2022-10-23T14:22:49;100357.13;;;37.92;65.42
48846;BME280;34665;51.886;5.436;2022-10-23T14:25:15;100336.38;;;30.57;79.39
48846;BME280;34665;51.886;5.436;2022-10-23T14:27:40;100331.38;;;29.16;86.62